Etusivu
METAR-TAF:

METAR-TAF

Lentoasemat :

Finkenwerder, Saksa

Leveyspiiri: 53-32N, Pituuspiiri: 009-50E, korkeus merenpinnasta: 5 m

Tämänhetkinen sää

Tämä raportti tehtiin 43 minuuttia sitten, kello 12.20 UTC
Tuuli 20 kn pohjoisesta/koillisesta
Lämpötila 4°C
Kosteus 48%
Ilmanpaine 1030 hPa
Näkyvyys 10 km tai enemmän

METAR: EDHI 291220Z AUTO 03020KT 9999 // OVC039/// 04/M06 Q1030

Aika: 15:03 (13:03 UTC)

Sääennuste

Tämä raportti tehtiin 23 tuntia ja 3 minuuttia sitten, kello 14.00 UTC
Ennuste voimassa 28. päivästä klo 15 UTC - 28. päivään klo 21 UTC
Tuuli 11 kn lännestä/luoteesta puuskistuen 21 kn:hen
Näkyvyys 10 km tai enemmän
ei pilviä alle 1500 m:ssä eikä cumulonimbus-pilviä
Ajoittain
28. päivästä klo 17 UTC - 28. päivään klo 21 UTC
Tuuli 8 kn pohjoisesta

TAF: EDHI 281400Z 2815/2821 30011G21KT CAVOK TEMPO 2817/2821 36008KT

Säähavainnot ja -ennusteet yli 4000 lentoasemalta (METAR- ja TAF-raportit).

Käytössä olevat sääasemat on merkitty karttaan keltaisilla ja punaisilla pisteillä.

Aseta hiiri pisteen päälle nähdäksesi sääaseman nimen.

Klikkaa sitten nähdäksesi säähavainnot ja -ennusteet.

Kartan vaihtaminen: klikkaa mustalla rastilla varustettuja vihreitä pisteitä, niin voit zoomata sisään; viivalla varustettua vihreää pistettä, niin voit zoomata ulos tai vihreitä nuolia, niin pääset viereisille kartoille.


METAR-TAF: